Time;durP1;ratioP1;P1;durP2;ratioP2;P2;SDS_P1;SDS_P2;PMS_P1;PMS_P2;Temp;Humidity;BMP_temperature;BMP_pressure;BME280_temperature;BME280_humidity;BME280_pressure;Samples;Min_cycle;Max_cycle;Signal;HPM_P1;HPM_P2
2022/12/22 03:27:19;;;;;;;;;;;;;;;11.61;38.93;99159.50;4513954;31;33835;-81
2022/12/22 03:29:46;;;;;;;;;;;;;;;11.38;39.48;99168.81;4510615;31;34868;-80
2022/12/22 03:32:14;;;;;;;;;;;;;;;11.41;39.69;99166.25;4500166;31;34065;-80
2022/12/22 03:34:41;;;;;;;;;;;;;;;11.09;40.72;99158.16;4509264;31;32774;-80
2022/12/22 03:37:08;;;;;;;;;;;;;;;11.50;40.02;99163.75;4513748;31;32469;-82
2022/12/22 03:39:36;;;;;;;;;;;;;;;11.53;40.15;99149.94;4512026;31;33962;-81
2022/12/22 03:47:35;;;;;;;;;;;;;;;11.19;41.37;99147.00;4514325;31;33580;-81
2022/12/22 03:50:02;;;;;;;;;;;;;;;11.24;41.46;99141.88;4514200;31;34611;-80
2022/12/22 03:52:30;;;;;;;;;;;;;;;11.05;42.01;99144.28;4509937;31;33999;-81
2022/12/22 03:54:57;;;;;;;;;;;;;;;11.45;41.33;99142.06;4497975;31;34218;-81
2022/12/22 03:57:24;;;;;;;;;;;;;;;11.36;41.47;99154.94;4498058;31;33333;-82
2022/12/22 03:59:51;;;;;;;;;;;;;;;11.62;40.94;99150.84;4499567;31;34637;-80
2022/12/22 04:02:19;;;;;;;;;;;;;;;11.24;41.72;99162.63;4512039;31;34403;-81
2022/12/22 04:04:46;;;;;;;;;;;;;;;11.15;41.81;99158.22;4514012;31;34440;-82
2022/12/22 04:07:13;;;;;;;;;;;;;;;11.28;41.64;99161.78;4515134;31;33602;-83
2022/12/22 04:12:53;;;;;;;;;;;;;;;11.38;41.19;99171.44;4516086;31;34156;-82
2022/12/22 04:15:14;;;;;;;;;;;;;;;11.36;41.22;99178.31;4505720;31;34084;-82
2022/12/22 04:17:42;;;;;;;;;;;;;;;11.23;41.66;99176.47;4500403;31;33506;-81
2022/12/22 04:20:09;;;;;;;;;;;;;;;10.83;42.39;99176.88;4499969;31;34019;-81
2022/12/22 04:22:36;;;;;;;;;;;;;;;11.26;41.72;99179.97;4513301;31;37028;-82
2022/12/22 04:25:04;;;;;;;;;;;;;;;11.49;41.16;99179.31;4502232;31;33951;-83
2022/12/22 04:27:31;;;;;;;;;;;;;;;11.40;41.34;99183.56;4515877;31;33316;-82
2022/12/22 04:29:58;;;;;;;;;;;;;;;11.38;41.35;99177.47;4515935;31;34667;-82
2022/12/22 04:32:26;;;;;;;;;;;;;;;11.43;41.36;99173.19;4513476;31;32752;-82
2022/12/22 04:34:53;;;;;;;;;;;;;;;11.39;41.53;99171.44;4515841;31;34988;-82
2022/12/22 04:37:20;;;;;;;;;;;;;;;11.26;41.52;99164.41;4516083;31;33598;-83
2022/12/22 04:39:48;;;;;;;;;;;;;;;11.58;41.00;99151.69;4499551;31;32475;-82
2022/12/22 04:42:15;;;;;;;;;;;;;;;11.45;41.32;99147.25;4500221;31;34141;-83
2022/12/22 04:44:42;;;;;;;;;;;;;;;11.59;41.02;99145.66;4500119;31;33937;-82
2022/12/22 04:47:10;;;;;;;;;;;;;;;11.29;41.61;99150.56;4499766;31;33063;-82
2022/12/22 04:49:37;;;;;;;;;;;;;;;11.51;41.32;99154.22;4515688;31;34652;-81
2022/12/22 04:52:04;;;;;;;;;;;;;;;11.46;41.33;99143.81;4519273;31;34261;-81
2022/12/22 04:54:31;;;;;;;;;;;;;;;11.41;41.62;99153.28;4499815;31;34790;-83
2022/12/22 04:56:59;;;;;;;;;;;;;;;11.45;41.73;99160.25;4500198;31;33236;-82
2022/12/22 04:59:26;;;;;;;;;;;;;;;11.16;42.32;99154.75;4525548;31;33710;-82
2022/12/22 05:01:53;;;;;;;;;;;;;;;10.75;43.14;99150.00;4508030;31;35186;-83
2022/12/22 05:04:21;;;;;;;;;;;;;;;11.18;42.36;99150.47;4508180;31;34088;-82
2022/12/22 05:06:50;;;;;;;;;;;;;;;11.27;42.30;99154.87;4503737;31;33858;-81
2022/12/22 05:09:17;;;;;;;;;;;;;;;11.11;42.44;99149.53;4500137;31;33492;-83
2022/12/22 05:11:44;;;;;;;;;;;;;;;11.10;42.46;99144.31;4499919;31;33900;-82
2022/12/22 05:14:12;;;;;;;;;;;;;;;11.32;42.09;99150.59;4500024;31;34466;-82
2022/12/22 05:16:39;;;;;;;;;;;;;;;11.40;41.80;99154.13;4512995;31;33222;-81
2022/12/22 05:19:06;;;;;;;;;;;;;;;11.17;42.17;99152.22;4512457;31;33927;-81
2022/12/22 05:21:33;;;;;;;;;;;;;;;10.99;42.72;99154.59;4514692;31;34328;-83
2022/12/22 05:24:01;;;;;;;;;;;;;;;11.20;42.30;99154.81;4515443;31;34258;-83
2022/12/22 05:26:28;;;;;;;;;;;;;;;10.75;43.11;99150.00;4523877;31;34285;-83
2022/12/22 05:28:55;;;;;;;;;;;;;;;10.93;42.67;99147.59;4507261;31;34443;-82
2022/12/22 05:31:23;;;;;;;;;;;;;;;11.00;42.82;99152.88;4515450;31;33962;-82
2022/12/22 05:33:51;;;;;;;;;;;;;;;11.19;42.51;99153.06;4515749;31;35423;-82
2022/12/22 05:36:18;;;;;;;;;;;;;;;10.70;43.66;99160.31;4525514;31;32791;-82
2022/12/22 05:38:45;;;;;;;;;;;;;;;10.83;43.02;99158.72;4524080;31;33708;-82
2022/12/22 05:41:12;;;;;;;;;;;;;;;10.68;43.38;99155.94;4510624;31;33989;-83
2022/12/22 05:43:40;;;;;;;;;;;;;;;10.59;42.85;99145.47;4506404;31;33777;-81
2022/12/22 05:46:09;;;;;;;;;;;;;;;10.52;43.05;99144.53;4515581;31;33395;-83
2022/12/22 05:48:36;;;;;;;;;;;;;;;10.75;42.86;99146.53;4514704;31;34229;-82
2022/12/22 05:51:08;;;;;;;;;;;;;;;10.77;42.34;99137.94;4519931;31;34139;-82
2022/12/22 05:53:36;;;;;;;;;;;;;;;10.83;42.26;99144.88;4514217;31;34022;-82
2022/12/22 05:56:04;;;;;;;;;;;;;;;10.71;42.44;99146.47;4514131;31;33084;-82
2022/12/22 05:58:31;;;;;;;;;;;;;;;10.60;42.76;99147.22;4510483;31;34165;-82
2022/12/22 06:00:59;;;;;;;;;;;;;;;10.82;42.43;99149.22;4520962;31;35176;-82
2022/12/22 06:03:27;;;;;;;;;;;;;;;10.22;43.17;99139.78;4520258;31;33889;-81
2022/12/22 06:05:54;;;;;;;;;;;;;;;10.99;41.83;99141.63;4508415;31;32839;-82
2022/12/22 06:08:22;;;;;;;;;;;;;;;11.27;41.45;99145.34;4499361;31;34853;-83
2022/12/22 06:10:49;;;;;;;;;;;;;;;10.71;42.69;99150.81;4512237;31;34269;-82
2022/12/22 06:13:17;;;;;;;;;;;;;;;10.69;43.04;99150.81;4523409;31;34765;-83
2022/12/22 06:15:44;;;;;;;;;;;;;;;10.81;42.71;99149.22;4514475;31;33624;-83
2022/12/22 06:18:12;;;;;;;;;;;;;;;11.08;42.15;99141.72;4514331;31;34991;-83
2022/12/22 06:20:39;;;;;;;;;;;;;;;10.85;42.62;99138.00;4514874;31;34286;-82
2022/12/22 06:23:07;;;;;;;;;;;;;;;11.07;42.23;99139.97;4518661;31;34771;-82
2022/12/22 06:25:34;;;;;;;;;;;;;;;11.07;42.31;99146.91;4520603;31;33085;-83
2022/12/22 06:28:01;;;;;;;;;;;;;;;10.90;42.62;99146.69;4515597;31;34571;-81
2022/12/22 06:30:28;;;;;;;;;;;;;;;10.95;42.51;99151.09;4513171;31;33870;-82
2022/12/22 06:33:00;;;;;;;;;;;;;;;10.54;43.02;99150.62;4515074;31;34637;-83
2022/12/22 06:35:27;;;;;;;;;;;;;;;10.88;42.31;99144.09;4505896;31;32804;-83
2022/12/22 06:37:55;;;;;;;;;;;;;;;11.24;41.76;99154.84;4527524;31;33443;-83
2022/12/22 06:40:22;;;;;;;;;;;;;;;11.19;41.92;99160.84;4531249;31;33685;-82
2022/12/22 06:43:07;;;;;;;;;;;;;;;11.29;41.89;99155.75;4530944;31;34092;-83
2022/12/22 06:45:40;;;;;;;;;;;;;;;10.86;42.67;99150.13;4527379;31;32572;-83
2022/12/22 06:48:08;;;;;;;;;;;;;;;10.98;42.44;99163.22;4528697;31;34864;-82
2022/12/22 06:50:35;;;;;;;;;;;;;;;11.04;42.53;99157.25;4515893;31;34235;-81
2022/12/22 06:53:03;;;;;;;;;;;;;;;11.03;42.42;99163.28;4514610;31;34061;-83
2022/12/22 06:55:30;;;;;;;;;;;;;;;11.04;42.40;99165.88;4514045;31;34152;-83
2022/12/22 06:57:57;;;;;;;;;;;;;;;11.28;42.15;99169.59;4526633;31;33994;-83
2022/12/22 07:00:25;;;;;;;;;;;;;;;11.36;41.96;99162.72;4519752;31;33811;-83
2022/12/22 07:02:52;;;;;;;;;;;;;;;11.00;42.63;99169.31;4509779;31;34054;-83
2022/12/22 07:05:20;;;;;;;;;;;;;;;10.85;42.98;99172.59;4498941;31;33698;-82
2022/12/22 07:07:47;;;;;;;;;;;;;;;11.31;42.11;99173.09;4512035;31;34872;-81
2022/12/22 07:10:14;;;;;;;;;;;;;;;10.98;42.69;99170.13;4498801;31;33689;-83
2022/12/22 07:12:42;;;;;;;;;;;;;;;11.13;42.52;99175.47;4500778;31;33947;-82
2022/12/22 07:15:09;;;;;;;;;;;;;;;11.23;42.43;99168.69;4509418;31;33396;-82
2022/12/22 07:17:37;;;;;;;;;;;;;;;11.17;42.52;99161.69;4508154;31;33962;-83
2022/12/22 07:20:04;;;;;;;;;;;;;;;11.30;42.25;99160.97;4526307;31;34379;-83
2022/12/22 07:22:31;;;;;;;;;;;;;;;11.44;42.07;99158.50;4523265;31;34142;-83
2022/12/22 07:24:59;;;;;;;;;;;;;;;11.54;41.95;99157.72;4507528;31;33967;-83
2022/12/22 07:27:26;;;;;;;;;;;;;;;11.28;42.28;99165.25;4508399;31;34289;-83
2022/12/22 07:29:53;;;;;;;;;;;;;;;11.34;42.15;99165.34;4509303;31;34182;-83
2022/12/22 07:32:20;;;;;;;;;;;;;;;11.41;42.13;99168.88;4520691;31;34251;-81
2022/12/22 07:34:47;;;;;;;;;;;;;;;11.73;41.37;99165.66;4530579;31;32875;-82
2022/12/22 07:37:15;;;;;;;;;;;;;;;11.17;42.42;99172.97;4521326;31;34129;-83
2022/12/22 07:39:42;;;;;;;;;;;;;;;10.97;42.98;99171.84;4515064;31;35305;-82
2022/12/22 07:44:56;;;;;;;;;;;;;;;10.51;44.02;99173.03;4516095;31;34046;-82
2022/12/22 07:47:24;;;;;;;;;;;;;;;11.02;42.84;99177.97;4512582;31;34890;-82
2022/12/22 07:52:45;;;;;;;;;;;;;;;10.91;43.48;99200.31;4532163;31;34888;-82
2022/12/22 07:55:13;;;;;;;;;;;;;;;10.75;43.45;99183.69;4522460;31;33242;-82
2022/12/22 07:57:40;;;;;;;;;;;;;;;10.61;44.02;99183.53;4516353;31;34389;-81
2022/12/22 08:00:07;;;;;;;;;;;;;;;10.99;43.10;99183.13;4516336;31;33806;-82
2022/12/22 08:02:38;;;;;;;;;;;;;;;11.03;43.01;99178.84;4516366;31;34838;-82
2022/12/22 08:05:06;;;;;;;;;;;;;;;10.84;42.74;99188.16;4515377;31;33258;-82
2022/12/22 08:07:34;;;;;;;;;;;;;;;11.16;42.22;99191.09;4516065;31;34202;-82
2022/12/22 08:10:01;;;;;;;;;;;;;;;11.33;42.18;99178.31;4518089;31;34499;-83
2022/12/22 08:12:29;;;;;;;;;;;;;;;11.59;41.76;99182.03;4515625;31;33951;-82
2022/12/22 08:14:57;;;;;;;;;;;;;;;11.77;41.35;99181.28;4514598;31;33082;-82
2022/12/22 08:17:27;;;;;;;;;;;;;;;11.93;41.10;99185.78;4515975;31;33725;-84
2022/12/22 08:19:55;;;;;;;;;;;;;;;11.90;41.06;99190.09;4516221;31;34384;-83
2022/12/22 08:22:22;;;;;;;;;;;;;;;11.88;41.11;99192.66;4516069;31;34967;-83
2022/12/22 08:24:50;;;;;;;;;;;;;;;11.88;40.95;99174.47;4510016;31;33337;-83
2022/12/22 08:27:23;;;;;;;;;;;;;;;11.33;41.34;99170.53;4500093;31;34967;-82
2022/12/22 08:29:53;;;;;;;;;;;;;;;11.47;40.57;99175.81;4506426;31;34182;-84
2022/12/22 08:32:21;;;;;;;;;;;;;;;9.27;46.12;99180.56;4507609;31;33703;-83
2022/12/22 08:34:49;;;;;;;;;;;;;;;8.62;46.84;99181.88;4515751;31;34236;-83
2022/12/22 08:37:17;;;;;;;;;;;;;;;9.60;45.19;99182.00;4515972;31;34165;-83
2022/12/22 08:39:45;;;;;;;;;;;;;;;9.53;45.17;99176.69;4514581;31;34149;-82
2022/12/22 08:42:13;;;;;;;;;;;;;;;9.14;46.02;99178.59;4501373;31;34317;-83
2022/12/22 08:44:40;;;;;;;;;;;;;;;8.97;46.31;99186.03;4515834;31;33788;-81
2022/12/22 08:47:08;;;;;;;;;;;;;;;8.93;46.78;99181.66;4515019;31;34084;-84
2022/12/22 08:49:43;;;;;;;;;;;;;;;9.36;46.26;99194.53;4511200;31;33875;-83
2022/12/22 08:52:10;;;;;;;;;;;;;;;9.10;47.25;99207.84;4521175;31;34496;-82
2022/12/22 08:54:45;;;;;;;;;;;;;;;9.52;46.76;99198.25;4513621;31;34531;-82
2022/12/22 08:57:12;;;;;;;;;;;;;;;8.82;47.90;99195.19;4513433;31;35166;-82
2022/12/22 08:59:39;;;;;;;;;;;;;;;9.60;45.62;99192.34;4511842;31;33751;-82
2022/12/22 09:02:06;;;;;;;;;;;;;;;8.95;47.07;99184.28;4531490;31;34943;-82
2022/12/22 09:04:35;;;;;;;;;;;;;;;9.58;45.90;99191.44;4531822;31;32944;-82
2022/12/22 09:07:02;;;;;;;;;;;;;;;9.21;46.39;99164.94;4531492;31;34035;-82
2022/12/22 09:09:30;;;;;;;;;;;;;;;7.68;49.28;99178.84;4523487;31;35042;-83
2022/12/22 09:11:58;;;;;;;;;;;;;;;8.71;47.29;99159.69;4528925;31;34214;-82
2022/12/22 09:14:25;;;;;;;;;;;;;;;8.64;47.63;99175.91;4515141;31;33119;-83
2022/12/22 09:16:52;;;;;;;;;;;;;;;8.78;47.52;99164.13;4515098;31;33985;-82
2022/12/22 09:19:20;;;;;;;;;;;;;;;9.02;46.83;99153.41;4515619;31;35224;-83
2022/12/22 09:21:47;;;;;;;;;;;;;;;7.47;51.00;99168.91;4528426;31;34014;-81
2022/12/22 09:24:14;;;;;;;;;;;;;;;8.15;49.33;99155.87;4506652;31;34101;-81
2022/12/22 09:26:48;;;;;;;;;;;;;;;8.22;48.67;99160.31;4512716;31;34947;-81
2022/12/22 09:29:16;;;;;;;;;;;;;;;8.51;49.07;99158.41;4514344;31;34032;-81
2022/12/22 09:31:43;;;;;;;;;;;;;;;8.09;49.40;99143.69;4514800;31;34336;-80
2022/12/22 09:34:11;;;;;;;;;;;;;;;8.17;49.85;99139.56;4507959;31;33253;-83
2022/12/22 09:36:45;;;;;;;;;;;;;;;8.42;48.34;99142.72;4513096;31;34626;-81
2022/12/22 09:39:12;;;;;;;;;;;;;;;8.91;46.77;99139.41;4515176;31;34941;-81
2022/12/22 09:41:44;;;;;;;;;;;;;;;8.76;47.17;99142.56;4515089;31;33779;-82
2022/12/22 09:44:31;;;;;;;;;;;;;;;8.91;46.34;99136.81;4500478;31;32944;-82
2022/12/22 09:46:59;;;;;;;;;;;;;;;8.92;46.52;99140.25;4511776;31;35297;-81
2022/12/22 09:49:27;;;;;;;;;;;;;;;8.56;48.52;99133.53;4512664;31;34380;-82
2022/12/22 09:51:55;;;;;;;;;;;;;;;9.26;46.67;99132.25;4513898;31;34294;-81
2022/12/22 09:54:23;;;;;;;;;;;;;;;9.40;45.13;99129.06;4512334;31;33440;-81
2022/12/22 09:56:50;;;;;;;;;;;;;;;8.73;46.95;99134.72;4511154;31;33577;-82
2022/12/22 09:59:18;;;;;;;;;;;;;;;7.31;50.30;99132.41;4506014;31;33603;-81
2022/12/22 10:02:00;;;;;;;;;;;;;;;8.86;46.83;99109.09;4503762;31;34078;-82
2022/12/22 10:04:32;;;;;;;;;;;;;;;9.78;44.83;99103.78;4514215;31;34096;-83
2022/12/22 10:07:18;;;;;;;;;;;;;;;9.87;44.56;99097.84;4507385;31;34108;-82
2022/12/22 10:09:45;;;;;;;;;;;;;;;8.70;47.55;99101.06;4506006;31;34940;-83
2022/12/22 10:12:21;;;;;;;;;;;;;;;8.97;47.25;99103.28;4499022;31;34192;-83
2022/12/22 10:14:49;;;;;;;;;;;;;;;9.65;45.58;99102.69;4510435;31;32938;-82
2022/12/22 10:17:24;;;;;;;;;;;;;;;9.24;46.52;99096.84;4506746;31;34005;-82
2022/12/22 10:19:52;;;;;;;;;;;;;;;8.30;48.99;99104.56;4513758;31;34122;-82
2022/12/22 10:22:28;;;;;;;;;;;;;;;9.93;45.41;99090.19;4509838;31;34909;-82
2022/12/22 10:24:57;;;;;;;;;;;;;;;10.21;45.03;99091.41;4512865;31;34144;-80
2022/12/22 10:27:25;;;;;;;;;;;;;;;9.51;45.96;99099.06;4497708;31;34008;-81
2022/12/22 10:30:16;;;;;;;;;;;;;;;9.70;45.67;99092.44;4499168;31;34039;-81
2022/12/22 10:32:59;;;;;;;;;;;;;;;9.38;46.48;99085.03;4498882;31;34389;-81
2022/12/22 10:35:26;;;;;;;;;;;;;;;7.57;51.21;99085.72;4513926;31;33933;-81
2022/12/22 10:37:53;;;;;;;;;;;;;;;7.34;52.34;99087.75;4512383;31;33579;-80
2022/12/22 10:40:21;;;;;;;;;;;;;;;9.33;47.76;99080.63;4506185;31;35063;-80
2022/12/22 10:42:54;;;;;;;;;;;;;;;8.74;49.12;99083.91;4513917;31;33888;-81
2022/12/22 10:45:23;;;;;;;;;;;;;;;8.87;47.91;99082.44;4514020;31;33855;-81
2022/12/22 10:47:51;;;;;;;;;;;;;;;8.97;47.28;99079.16;4513739;31;34122;-82
2022/12/22 10:50:18;;;;;;;;;;;;;;;8.64;48.09;99072.53;4513950;31;34257;-82
2022/12/22 10:52:55;;;;;;;;;;;;;;;7.07;52.24;99068.19;4507458;31;34011;-82
2022/12/22 10:55:27;;;;;;;;;;;;;;;6.25;55.54;99068.56;4507559;31;33447;-82
2022/12/22 10:58:07;;;;;;;;;;;;;;;6.65;54.71;99067.09;4513632;31;34094;-82
2022/12/22 11:00:35;;;;;;;;;;;;;;;7.53;52.76;99073.59;4509099;31;35167;-82
2022/12/22 11:03:03;;;;;;;;;;;;;;;8.40;50.63;99083.25;4499034;31;33584;-82
2022/12/22 11:05:31;;;;;;;;;;;;;;;8.78;49.77;99083.97;4497903;31;33556;-82
2022/12/22 11:08:18;;;;;;;;;;;;;;;8.10;50.78;99078.28;4497779;31;34205;-82
2022/12/22 11:11:06;;;;;;;;;;;;;;;8.70;49.21;99072.63;4508353;31;33681;-82
2022/12/22 11:13:34;;;;;;;;;;;;;;;9.45;47.13;99052.38;4498502;31;34861;-81
2022/12/22 11:16:12;;;;;;;;;;;;;;;9.64;46.94;99056.97;4505365;31;34042;-82
2022/12/22 11:18:45;;;;;;;;;;;;;;;10.19;45.95;99062.91;4513134;31;33734;-82
2022/12/22 11:21:22;;;;;;;;;;;;;;;9.94;46.20;99066.03;4514654;31;34429;-81
2022/12/22 11:24:09;;;;;;;;;;;;;;;9.92;45.73;99065.97;4514400;31;34858;-81
2022/12/22 11:26:36;;;;;;;;;;;;;;;9.91;46.14;99061.66;4511755;31;33208;-82
2022/12/22 11:29:09;;;;;;;;;;;;;;;10.28;45.07;99051.81;4514405;31;34221;-80
2022/12/22 11:31:40;;;;;;;;;;;;;;;10.66;44.56;99048.78;4514290;31;34260;-80
2022/12/22 11:34:30;;;;;;;;;;;;;;;10.31;44.73;99045.81;4513760;31;34782;-81
2022/12/22 11:37:00;;;;;;;;;;;;;;;9.39;47.35;99040.19;4513230;31;33458;-80
2022/12/22 11:39:37;;;;;;;;;;;;;;;9.79;45.97;99037.31;4514299;31;34849;-82
2022/12/22 11:42:05;;;;;;;;;;;;;;;9.62;46.22;99040.56;4513026;31;34903;-82
2022/12/22 11:44:51;;;;;;;;;;;;;;;8.80;48.24;99046.97;4514540;31;34203;-80
2022/12/22 11:47:30;;;;;;;;;;;;;;;9.54;46.93;99043.84;4514583;31;32962;-81
2022/12/22 11:49:57;;;;;;;;;;;;;;;8.87;48.44;99059.16;4514382;31;33911;-81
2022/12/22 11:52:54;;;;;;;;;;;;;;;9.78;46.22;99051.13;4521101;31;35359;-80
2022/12/22 11:55:24;;;;;;;;;;;;;;;10.24;45.39;99056.03;4530189;31;35092;-82
2022/12/22 11:57:55;;;;;;;;;;;;;;;9.84;46.67;99051.19;4528772;31;33563;-81
2022/12/22 12:00:22;;;;;;;;;;;;;;;10.59;44.76;99063.37;4512946;31;34048;-81
2022/12/22 12:03:28;;;;;;;;;;;;;;;11.25;42.71;99053.66;4501958;31;35121;-80
2022/12/22 12:06:14;;;;;;;;;;;;;;;10.44;44.53;99052.84;4513649;31;35941;-81
2022/12/22 12:08:59;;;;;;;;;;;;;;;11.06;43.24;99044.84;4514037;31;33728;-81
2022/12/22 12:11:33;;;;;;;;;;;;;;;10.58;44.65;99043.50;4499591;31;34145;-82
2022/12/22 12:14:09;;;;;;;;;;;;;;;10.88;44.37;99035.16;4520457;31;34407;-82
2022/12/22 12:16:36;;;;;;;;;;;;;;;10.67;44.89;99045.31;4528754;31;34155;-82
2022/12/22 12:19:07;;;;;;;;;;;;;;;11.18;43.82;99039.75;4528119;31;33265;-82
2022/12/22 12:21:37;;;;;;;;;;;;;;;11.26;43.41;99037.22;4530001;31;34428;-83
2022/12/22 12:24:25;;;;;;;;;;;;;;;10.26;44.76;99039.69;4529842;31;33914;-81
2022/12/22 12:26:55;;;;;;;;;;;;;;;9.45;47.00;99034.25;4530124;31;33441;-81
2022/12/22 12:29:33;;;;;;;;;;;;;;;10.01;46.22;99030.72;4532162;31;33493;-81
2022/12/22 12:32:04;;;;;;;;;;;;;;;11.08;43.53;99027.56;4515916;31;33942;-83
2022/12/22 12:34:33;;;;;;;;;;;;;;;9.77;46.45;99029.53;4516697;31;34436;-81
2022/12/22 12:37:01;;;;;;;;;;;;;;;11.25;43.01;99032.00;4501508;31;33881;-81
2022/12/22 12:39:29;;;;;;;;;;;;;;;11.46;42.87;99039.97;4502454;31;33170;-82
2022/12/22 12:42:05;;;;;;;;;;;;;;;11.89;42.25;99040.25;4515798;31;35360;-81
2022/12/22 12:44:33;;;;;;;;;;;;;;;11.44;42.88;99052.09;4528841;31;33982;-82
2022/12/22 12:47:01;;;;;;;;;;;;;;;11.27;43.03;99058.84;4517055;31;34102;-82
2022/12/22 12:49:37;;;;;;;;;;;;;;;10.85;44.14;99053.28;4531905;31;34183;-82
2022/12/22 12:52:05;;;;;;;;;;;;;;;10.27;44.96;99054.41;4518379;31;33062;-83
2022/12/22 12:54:39;;;;;;;;;;;;;;;10.47;44.74;99058.06;4531889;31;34365;-82
2022/12/22 12:57:06;;;;;;;;;;;;;;;9.52;46.83;99061.97;4531544;31;34673;-83
2022/12/22 12:59:39;;;;;;;;;;;;;;;9.57;46.87;99052.53;4531528;31;33783;-85
2022/12/22 13:02:25;;;;;;;;;;;;;;;10.06;46.47;99060.12;4531782;31;34840;-83
2022/12/22 13:04:58;;;;;;;;;;;;;;;10.47;45.54;99053.75;4523688;31;34417;-83
2022/12/22 13:07:45;;;;;;;;;;;;;;;10.80;45.00;99054.13;4515557;31;35108;-83
2022/12/22 13:10:19;;;;;;;;;;;;;;;10.73;45.13;99035.03;4515742;31;33417;-83
2022/12/22 13:12:50;;;;;;;;;;;;;;;9.32;47.71;99040.06;4515969;31;35052;-85
2022/12/22 13:15:29;;;;;;;;;;;;;;;10.34;45.71;99043.22;4501670;31;34989;-84
2022/12/22 13:17:57;;;;;;;;;;;;;;;9.73;47.01;99036.38;4515934;31;35105;-81
2022/12/22 13:20:30;;;;;;;;;;;;;;;9.68;47.51;99043.22;4519771;31;33141;-84
2022/12/22 13:22:58;;;;;;;;;;;;;;;9.75;47.25;99042.44;4516912;31;35402;-82
2022/12/22 13:25:30;;;;;;;;;;;;;;;10.51;45.68;99043.44;4517298;31;34091;-83
2022/12/22 13:27:57;;;;;;;;;;;;;;;11.11;44.33;99039.69;4517056;31;34190;-85
2022/12/22 13:30:28;;;;;;;;;;;;;;;11.01;44.26;99037.88;4531697;31;32975;-81
2022/12/22 13:32:56;;;;;;;;;;;;;;;11.67;42.81;99034.06;4517164;31;33535;-84
2022/12/22 13:35:29;;;;;;;;;;;;;;;11.35;43.09;99026.91;4517016;31;35264;-84
2022/12/22 13:37:59;;;;;;;;;;;;;;;11.56;42.71;99021.00;4515705;31;34243;-82
2022/12/22 13:40:29;;;;;;;;;;;;;;;11.47;43.16;99020.06;4504856;31;32337;-85
2022/12/22 13:43:01;;;;;;;;;;;;;;;11.55;42.87;99013.19;4501973;31;35059;-83
2022/12/22 13:45:28;;;;;;;;;;;;;;;10.73;44.36;99006.50;4515500;31;35236;-84
2022/12/22 13:47:56;;;;;;;;;;;;;;;11.41;43.33;99001.00;4515515;31;33883;-84
2022/12/22 13:50:27;;;;;;;;;;;;;;;9.59;47.55;99003.41;4500886;31;34363;-83
2022/12/22 13:52:55;;;;;;;;;;;;;;;9.57;47.89;99005.09;4515315;31;34750;-83
2022/12/22 13:55:23;;;;;;;;;;;;;;;9.39;48.83;99003.09;4500968;31;34439;-84
2022/12/22 13:57:51;;;;;;;;;;;;;;;8.87;50.21;98999.72;4514011;31;33846;-87
2022/12/22 14:00:25;;;;;;;;;;;;;;;9.10;49.72;99007.84;4514687;31;33250;-83
2022/12/22 14:02:53;;;;;;;;;;;;;;;9.40;48.99;99004.84;4514972;31;33912;-84
2022/12/22 14:05:20;;;;;;;;;;;;;;;9.01;49.64;99000.78;4515251;31;34125;-82
2022/12/22 14:08:04;;;;;;;;;;;;;;;9.53;48.47;98990.38;4514866;31;34059;-85
2022/12/22 14:10:36;;;;;;;;;;;;;;;9.04;50.37;98990.50;4513869;31;34136;-86
2022/12/22 14:13:05;;;;;;;;;;;;;;;8.76;51.42;98984.88;4515471;31;33702;-85
2022/12/22 14:15:33;;;;;;;;;;;;;;;9.73;48.69;98973.38;4515368;31;34367;-87
2022/12/22 14:18:00;;;;;;;;;;;;;;;9.65;48.96;98981.03;4515265;31;33902;-85
2022/12/22 14:20:35;;;;;;;;;;;;;;;9.88;48.50;98972.69;4515386;31;34062;-84
2022/12/22 14:23:18;;;;;;;;;;;;;;;9.06;50.54;98975.88;4513819;31;33593;-85
2022/12/22 14:25:45;;;;;;;;;;;;;;;8.82;51.07;98983.22;4514724;31;35227;-84
2022/12/22 14:28:20;;;;;;;;;;;;;;;9.68;49.42;98995.75;4514067;31;34532;-83
2022/12/22 14:30:49;;;;;;;;;;;;;;;10.26;48.05;98993.03;4514823;31;31815;-83
2022/12/22 14:33:27;;;;;;;;;;;;;;;9.63;49.49;99003.47;4514700;31;33754;-83
2022/12/22 14:36:05;;;;;;;;;;;;;;;10.13;48.29;99000.66;4512402;31;34003;-81
2022/12/22 14:38:39;;;;;;;;;;;;;;;10.24;47.90;99009.41;4514116;31;33835;-82
2022/12/22 14:41:40;;;;;;;;;;;;;;;9.79;49.35;99033.00;4514060;31;33318;-83
2022/12/22 14:44:04;;;;;;;;;;;;;;;9.33;50.33;99031.47;4515350;31;33873;-82
2022/12/22 14:46:31;;;;;;;;;;;;;;;10.19;48.21;99041.28;4500962;31;33419;-82
2022/12/22 14:49:10;;;;;;;;;;;;;;;10.31;48.18;99045.81;4513719;31;33925;-83
2022/12/22 14:51:37;;;;;;;;;;;;;;;10.79;47.28;99049.75;4513282;31;33157;-82
2022/12/22 14:54:04;;;;;;;;;;;;;;;10.87;47.20;99035.13;4515209;31;34175;-83
2022/12/22 14:56:31;;;;;;;;;;;;;;;11.24;46.23;99032.87;4513909;31;35116;-83
2022/12/22 14:59:21;;;;;;;;;;;;;;;11.47;45.54;99036.50;4514086;31;33955;-84
2022/12/22 15:01:58;;;;;;;;;;;;;;;11.37;45.74;99056.34;4514810;31;33346;-83
2022/12/22 15:04:26;;;;;;;;;;;;;;;11.34;45.79;99051.13;4514893;31;33905;-84
2022/12/22 15:07:13;;;;;;;;;;;;;;;11.42;45.54;99054.66;4514885;31;35457;-82
2022/12/22 15:10:00;;;;;;;;;;;;;;;11.38;45.46;99036.44;4502161;31;34234;-83
2022/12/22 15:12:42;;;;;;;;;;;;;;;11.58;44.82;99024.47;4514724;31;33030;-83
2022/12/22 15:15:14;;;;;;;;;;;;;;;11.16;46.04;99038.88;4508487;31;32349;-83
2022/12/22 15:17:42;;;;;;;;;;;;;;;11.24;45.94;99022.50;4497394;31;35295;-84
2022/12/22 15:20:13;;;;;;;;;;;;;;;10.23;47.94;99022.38;4497827;31;34132;-84
2022/12/22 15:22:40;;;;;;;;;;;;;;;11.23;45.56;99016.44;4497741;31;33104;-82
2022/12/22 15:25:14;;;;;;;;;;;;;;;11.12;45.91;99005.97;4498860;31;33991;-83
2022/12/22 15:27:42;;;;;;;;;;;;;;;10.52;46.57;99020.09;4504978;31;35352;-82
2022/12/22 15:30:12;;;;;;;;;;;;;;;10.93;46.52;99004.09;4514387;31;35268;-84
2022/12/22 15:32:39;;;;;;;;;;;;;;;10.65;46.88;99005.56;4513619;31;33912;-82
2022/12/22 15:35:15;;;;;;;;;;;;;;;9.80;49.02;99013.16;4514649;31;34368;-82
2022/12/22 15:37:42;;;;;;;;;;;;;;;9.94;49.06;99004.72;4513225;31;34622;-83
2022/12/22 15:40:16;;;;;;;;;;;;;;;10.75;46.96;98989.22;4513300;31;32794;-83
2022/12/22 15:42:44;;;;;;;;;;;;;;;10.65;47.34;98985.69;4514440;31;34191;-82
2022/12/22 15:45:12;;;;;;;;;;;;;;;9.89;48.22;98996.03;4514384;31;34122;-83
2022/12/22 15:47:40;;;;;;;;;;;;;;;8.99;50.97;98982.66;4514591;31;34332;-84
2022/12/22 15:50:09;;;;;;;;;;;;;;;10.13;48.37;98989.41;4513095;31;34989;-83
2022/12/22 15:52:37;;;;;;;;;;;;;;;9.48;50.03;98991.19;4513033;31;33666;-83
2022/12/22 15:55:04;;;;;;;;;;;;;;;9.80;49.45;98985.56;4514527;31;34637;-83
2022/12/22 15:57:31;;;;;;;;;;;;;;;9.50;50.06;98971.34;4514231;31;33859;-82
2022/12/22 15:59:59;;;;;;;;;;;;;;;9.38;50.91;98976.34;4514066;31;34106;-82
2022/12/22 16:02:26;;;;;;;;;;;;;;;9.23;51.25;98969.25;4514641;31;34155;-82
2022/12/22 16:04:56;;;;;;;;;;;;;;;8.70;52.64;98979.59;4516185;31;34916;-83
2022/12/22 16:07:24;;;;;;;;;;;;;;;9.12;51.74;98967.34;4516315;31;34312;-82
2022/12/22 16:09:51;;;;;;;;;;;;;;;9.10;51.76;98963.87;4516526;31;34091;-83
2022/12/22 16:12:18;;;;;;;;;;;;;;;9.03;52.03;98968.06;4516087;31;33579;-83
2022/12/22 16:14:46;;;;;;;;;;;;;;;8.83;52.74;98966.91;4516222;31;34976;-81
2022/12/22 16:17:21;;;;;;;;;;;;;;;9.39;51.14;98977.22;4516370;31;35105;-83
2022/12/22 16:19:48;;;;;;;;;;;;;;;9.73;50.68;98971.66;4515921;31;34558;-84
2022/12/22 16:22:16;;;;;;;;;;;;;;;9.89;50.18;98974.47;4516277;31;33745;-82
2022/12/22 16:24:44;;;;;;;;;;;;;;;9.61;50.79;98987.03;4516520;31;34184;-84
2022/12/22 16:27:12;;;;;;;;;;;;;;;9.56;50.95;98996.47;4514911;31;34908;-82
2022/12/22 16:29:43;;;;;;;;;;;;;;;9.88;49.88;98993.41;4514884;31;34187;-83
2022/12/22 16:32:38;;;;;;;;;;;;;;;9.92;49.92;99009.00;4516269;31;34037;-82
2022/12/22 16:35:13;;;;;;;;;;;;;;;10.42;49.15;99023.47;4514404;31;34855;-82
2022/12/22 16:37:41;;;;;;;;;;;;;;;10.58;48.69;99025.37;4516500;31;35205;-84
2022/12/22 16:40:08;;;;;;;;;;;;;;;10.75;48.50;99022.06;4516339;31;34364;-86
2022/12/22 16:42:36;;;;;;;;;;;;;;;11.09;47.69;99025.84;4516071;31;34257;-86
2022/12/22 16:45:21;;;;;;;;;;;;;;;10.83;48.18;99018.69;4516370;31;33766;-86
2022/12/22 16:47:50;;;;;;;;;;;;;;;10.95;48.17;99016.22;4515015;31;34012;-83